sensor_id;sensor_type;location;lat;lon;timestamp;pressure;altitude;pressure_sealevel;temperature;humidity
40982;BME280;26708;50.304;19.028;2024-03-08T00:00:09;98921.81;;;2.11;59.26
40982;BME280;26708;50.304;19.028;2024-03-08T00:02:16;98788.81;;;1.25;59.05
40982;BME280;26708;50.304;19.028;2024-03-08T00:04:20;98887.78;;;1.98;58.62
40982;BME280;26708;50.304;19.028;2024-03-08T00:06:28;98829.13;;;1.69;58.54
40982;BME280;26708;50.304;19.028;2024-03-08T00:08:36;98781.78;;;1.43;58.30
40982;BME280;26708;50.304;19.028;2024-03-08T00:10:41;98872.63;;;2.07;58.37
40982;BME280;26708;50.304;19.028;2024-03-08T00:12:46;98919.50;;;2.42;58.45
40982;BME280;26708;50.304;19.028;2024-03-08T00:14:53;98957.34;;;2.64;58.33
40982;BME280;26708;50.304;19.028;2024-03-08T00:17:00;98948.59;;;2.60;58.11
40982;BME280;26708;50.304;19.028;2024-03-08T00:19:05;98965.13;;;2.65;58.23
40982;BME280;26708;50.304;19.028;2024-03-08T00:21:10;98929.31;;;2.51;57.95
40982;BME280;26708;50.304;19.028;2024-03-08T00:23:16;98963.50;;;2.67;58.06
40982;BME280;26708;50.304;19.028;2024-03-08T00:25:24;98850.09;;;2.01;57.81
40982;BME280;26708;50.304;19.028;2024-03-08T00:27:29;98962.28;;;2.58;57.75
40982;BME280;26708;50.304;19.028;2024-03-08T00:29:31;98960.06;;;2.45;58.05
40982;BME280;26708;50.304;19.028;2024-03-08T00:31:37;98957.16;;;2.36;58.54
40982;BME280;26708;50.304;19.028;2024-03-08T00:33:40;98832.84;;;1.53;58.38
40982;BME280;26708;50.304;19.028;2024-03-08T00:35:44;98954.19;;;2.25;58.81
40982;BME280;26708;50.304;19.028;2024-03-08T00:37:49;98949.78;;;2.23;58.87
40982;BME280;26708;50.304;19.028;2024-03-08T00:39:57;98774.44;;;1.08;58.89
40982;BME280;26708;50.304;19.028;2024-03-08T00:42:02;98948.19;;;2.26;58.94
40982;BME280;26708;50.304;19.028;2024-03-08T00:44:08;98868.53;;;1.65;59.13
40982;BME280;26708;50.304;19.028;2024-03-08T00:46:12;98944.75;;;2.26;59.06
40982;BME280;26708;50.304;19.028;2024-03-08T00:48:17;98945.75;;;2.29;58.98
40982;BME280;26708;50.304;19.028;2024-03-08T00:50:22;98757.88;;;1.24;58.92
40982;BME280;26708;50.304;19.028;2024-03-08T00:52:29;98949.41;;;2.36;58.75
40982;BME280;26708;50.304;19.028;2024-03-08T00:54:35;98747.72;;;1.28;58.57
40982;BME280;26708;50.304;19.028;2024-03-08T00:56:42;98959.06;;;2.41;58.48
40982;BME280;26708;50.304;19.028;2024-03-08T00:58:50;98914.59;;;2.25;58.50
40982;BME280;26708;50.304;19.028;2024-03-08T01:00:55;98870.91;;;1.82;58.42
40982;BME280;26708;50.304;19.028;2024-03-08T01:03:01;98930.13;;;2.26;58.30
40982;BME280;26708;50.304;19.028;2024-03-08T01:05:07;98841.22;;;1.70;58.60
40982;BME280;26708;50.304;19.028;2024-03-08T01:07:12;98935.88;;;2.19;58.74
40982;BME280;26708;50.304;19.028;2024-03-08T01:09:17;98929.69;;;2.14;58.81
40982;BME280;26708;50.304;19.028;2024-03-08T01:11:22;98927.00;;;2.11;59.04
40982;BME280;26708;50.304;19.028;2024-03-08T01:13:29;98931.31;;;2.12;58.86
40982;BME280;26708;50.304;19.028;2024-03-08T01:15:37;98827.84;;;1.58;58.99
40982;BME280;26708;50.304;19.028;2024-03-08T01:17:42;98900.69;;;1.98;59.08
40982;BME280;26708;50.304;19.028;2024-03-08T01:19:47;98766.34;;;1.21;58.95
40982;BME280;26708;50.304;19.028;2024-03-08T01:21:53;98829.97;;;1.46;59.03
40982;BME280;26708;50.304;19.028;2024-03-08T01:23:59;98908.44;;;1.98;59.09
40982;BME280;26708;50.304;19.028;2024-03-08T01:26:04;98920.31;;;2.16;58.97
40982;BME280;26708;50.304;19.028;2024-03-08T01:28:09;98901.00;;;2.05;58.89
40982;BME280;26708;50.304;19.028;2024-03-08T01:30:14;98925.69;;;2.22;58.90
40982;BME280;26708;50.304;19.028;2024-03-08T01:32:22;98882.41;;;1.92;58.77
40982;BME280;26708;50.304;19.028;2024-03-08T01:34:25;98797.13;;;1.40;58.92
40982;BME280;26708;50.304;19.028;2024-03-08T01:36:30;98910.13;;;2.21;58.94
40982;BME280;26708;50.304;19.028;2024-03-08T01:38:34;98856.56;;;1.90;58.91
40982;BME280;26708;50.304;19.028;2024-03-08T01:40:40;98909.28;;;2.20;58.69
40982;BME280;26708;50.304;19.028;2024-03-08T01:42:44;98902.34;;;2.19;58.81
40982;BME280;26708;50.304;19.028;2024-03-08T01:44:47;98747.00;;;1.32;58.91
40982;BME280;26708;50.304;19.028;2024-03-08T01:46:53;98834.66;;;1.79;58.92
40982;BME280;26708;50.304;19.028;2024-03-08T01:49:01;98777.38;;;1.41;58.64
40982;BME280;26708;50.304;19.028;2024-03-08T01:51:06;98796.09;;;1.59;58.60
40982;BME280;26708;50.304;19.028;2024-03-08T01:53:13;98904.81;;;2.16;58.61
40982;BME280;26708;50.304;19.028;2024-03-08T01:55:19;98897.00;;;2.15;58.72
40982;BME280;26708;50.304;19.028;2024-03-08T01:57:25;98871.47;;;1.97;58.58
40982;BME280;26708;50.304;19.028;2024-03-08T01:59:29;98844.59;;;1.69;58.58
40982;BME280;26708;50.304;19.028;2024-03-08T02:01:35;98881.13;;;2.04;58.77
40982;BME280;26708;50.304;19.028;2024-03-08T02:03:39;98884.56;;;2.03;58.60
40982;BME280;26708;50.304;19.028;2024-03-08T02:05:49;98891.66;;;2.09;58.84
40982;BME280;26708;50.304;19.028;2024-03-08T02:07:54;98898.50;;;2.08;58.61
40982;BME280;26708;50.304;19.028;2024-03-08T02:09:59;98895.03;;;2.08;58.76
40982;BME280;26708;50.304;19.028;2024-03-08T02:12:03;98864.41;;;1.93;58.61
40982;BME280;26708;50.304;19.028;2024-03-08T02:14:11;98881.88;;;2.00;58.71
40982;BME280;26708;50.304;19.028;2024-03-08T02:16:20;98888.09;;;2.05;58.70
40982;BME280;26708;50.304;19.028;2024-03-08T02:18:27;98887.25;;;2.06;58.66
40982;BME280;26708;50.304;19.028;2024-03-08T02:20:33;98888.13;;;2.07;58.61
40982;BME280;26708;50.304;19.028;2024-03-08T02:22:38;98876.81;;;2.03;58.60
40982;BME280;26708;50.304;19.028;2024-03-08T02:24:43;98714.69;;;0.95;58.60
40982;BME280;26708;50.304;19.028;2024-03-08T02:26:48;98888.09;;;2.05;58.65
40982;BME280;26708;50.304;19.028;2024-03-08T02:28:54;98879.38;;;2.03;58.62
40982;BME280;26708;50.304;19.028;2024-03-08T02:31:00;98766.84;;;1.35;58.53
40982;BME280;26708;50.304;19.028;2024-03-08T02:33:09;98795.44;;;1.41;58.68
40982;BME280;26708;50.304;19.028;2024-03-08T02:35:13;98854.44;;;1.79;58.68
40982;BME280;26708;50.304;19.028;2024-03-08T02:37:21;98791.88;;;1.37;58.87
40982;BME280;26708;50.304;19.028;2024-03-08T02:39:27;98874.56;;;1.89;59.02
40982;BME280;26708;50.304;19.028;2024-03-08T02:41:33;98873.56;;;1.85;58.95
40982;BME280;26708;50.304;19.028;2024-03-08T02:43:38;98875.34;;;1.86;59.09
40982;BME280;26708;50.304;19.028;2024-03-08T02:45:43;98876.16;;;1.85;59.09
40982;BME280;26708;50.304;19.028;2024-03-08T02:47:48;98885.72;;;1.88;58.90
40982;BME280;26708;50.304;19.028;2024-03-08T02:49:53;98727.84;;;1.02;58.91
40982;BME280;26708;50.304;19.028;2024-03-08T02:51:58;98873.56;;;1.85;59.01
40982;BME280;26708;50.304;19.028;2024-03-08T02:54:05;98842.56;;;1.60;58.93
40982;BME280;26708;50.304;19.028;2024-03-08T02:56:12;98833.13;;;1.61;58.91
40982;BME280;26708;50.304;19.028;2024-03-08T02:58:18;98837.25;;;1.56;58.81
40982;BME280;26708;50.304;19.028;2024-03-08T03:00:23;98880.31;;;1.82;59.02
40982;BME280;26708;50.304;19.028;2024-03-08T03:02:28;98848.56;;;1.59;58.78
40982;BME280;26708;50.304;19.028;2024-03-08T03:04:33;98877.19;;;1.67;58.87
40982;BME280;26708;50.304;19.028;2024-03-08T03:06:39;98705.47;;;0.78;58.74
40982;BME280;26708;50.304;19.028;2024-03-08T03:08:47;98730.22;;;0.96;58.82
40982;BME280;26708;50.304;19.028;2024-03-08T03:10:55;98768.03;;;0.97;59.06
40982;BME280;26708;50.304;19.028;2024-03-08T03:12:59;98821.22;;;1.41;59.27
40982;BME280;26708;50.304;19.028;2024-03-08T03:15:02;98880.69;;;1.69;59.22
40982;BME280;26708;50.304;19.028;2024-03-08T03:17:07;98890.09;;;1.67;59.31
40982;BME280;26708;50.304;19.028;2024-03-08T03:19:13;98871.94;;;1.64;59.05
40982;BME280;26708;50.304;19.028;2024-03-08T03:21:17;98776.91;;;1.05;59.14
40982;BME280;26708;50.304;19.028;2024-03-08T03:23:22;98828.31;;;1.24;59.47
40982;BME280;26708;50.304;19.028;2024-03-08T03:25:27;98851.84;;;1.33;59.56
40982;BME280;26708;50.304;19.028;2024-03-08T03:27:37;98836.97;;;1.26;59.35
40982;BME280;26708;50.304;19.028;2024-03-08T03:29:44;98759.50;;;0.56;59.78
40982;BME280;26708;50.304;19.028;2024-03-08T03:31:50;98754.38;;;0.56;59.93
40982;BME280;26708;50.304;19.028;2024-03-08T03:33:55;98871.59;;;1.33;60.02
40982;BME280;26708;50.304;19.028;2024-03-08T03:36:03;98733.72;;;0.54;59.97
40982;BME280;26708;50.304;19.028;2024-03-08T03:38:06;98878.19;;;1.26;60.06
40982;BME280;26708;50.304;19.028;2024-03-08T03:40:12;98723.56;;;0.37;60.23
40982;BME280;26708;50.304;19.028;2024-03-08T03:42:21;98653.44;;;-0.01;60.47
40982;BME280;26708;50.304;19.028;2024-03-08T03:44:30;98795.41;;;0.73;60.42
40982;BME280;26708;50.304;19.028;2024-03-08T03:46:35;98757.06;;;0.59;60.25
40982;BME280;26708;50.304;19.028;2024-03-08T03:48:37;98860.13;;;1.25;60.29
40982;BME280;26708;50.304;19.028;2024-03-08T03:50:43;98821.63;;;1.07;60.34
40982;BME280;26708;50.304;19.028;2024-03-08T03:52:49;98830.84;;;1.01;60.33
40982;BME280;26708;50.304;19.028;2024-03-08T03:54:54;98868.53;;;1.43;60.09
40982;BME280;26708;50.304;19.028;2024-03-08T03:56:56;98815.84;;;1.13;59.80
40982;BME280;26708;50.304;19.028;2024-03-08T03:59:02;98739.56;;;0.72;59.78
40982;BME280;26708;50.304;19.028;2024-03-08T04:01:10;98700.97;;;0.30;59.83
40982;BME280;26708;50.304;19.028;2024-03-08T04:03:15;98712.06;;;0.49;60.03
40982;BME280;26708;50.304;19.028;2024-03-08T04:05:21;98868.94;;;1.31;60.17
40982;BME280;26708;50.304;19.028;2024-03-08T04:07:23;98869.88;;;1.33;60.35
40982;BME280;26708;50.304;19.028;2024-03-08T04:09:27;98778.13;;;0.71;60.12
40982;BME280;26708;50.304;19.028;2024-03-08T04:11:33;98654.91;;;0.14;60.26
40982;BME280;26708;50.304;19.028;2024-03-08T04:13:37;98724.16;;;0.52;60.15
40982;BME280;26708;50.304;19.028;2024-03-08T04:15:42;98806.06;;;1.04;60.01
40982;BME280;26708;50.304;19.028;2024-03-08T04:17:53;98863.88;;;1.33;59.96
40982;BME280;26708;50.304;19.028;2024-03-08T04:19:58;98824.63;;;1.18;60.11
40982;BME280;26708;50.304;19.028;2024-03-08T04:22:01;98673.41;;;0.26;59.91
40982;BME280;26708;50.304;19.028;2024-03-08T04:24:06;98852.25;;;1.22;60.03
40982;BME280;26708;50.304;19.028;2024-03-08T04:26:11;98856.66;;;1.24;60.30
40982;BME280;26708;50.304;19.028;2024-03-08T04:28:16;98854.13;;;1.26;60.46
40982;BME280;26708;50.304;19.028;2024-03-08T04:30:21;98799.75;;;0.96;60.07
40982;BME280;26708;50.304;19.028;2024-03-08T04:32:26;98808.50;;;1.01;60.08
40982;BME280;26708;50.304;19.028;2024-03-08T04:34:33;98708.50;;;0.46;60.07
40982;BME280;26708;50.304;19.028;2024-03-08T04:36:38;98817.88;;;0.99;60.13
40982;BME280;26708;50.304;19.028;2024-03-08T04:38:43;98683.75;;;0.28;60.10
40982;BME280;26708;50.304;19.028;2024-03-08T04:40:47;98846.28;;;1.23;59.99
40982;BME280;26708;50.304;19.028;2024-03-08T04:42:52;98835.41;;;1.08;60.08
40982;BME280;26708;50.304;19.028;2024-03-08T04:44:57;98851.97;;;1.14;60.53
40982;BME280;26708;50.304;19.028;2024-03-08T04:47:03;98789.69;;;0.60;60.55
40982;BME280;26708;50.304;19.028;2024-03-08T04:49:09;98849.25;;;1.11;60.63
40982;BME280;26708;50.304;19.028;2024-03-08T04:51:17;98768.06;;;0.55;60.71
40982;BME280;26708;50.304;19.028;2024-03-08T04:53:21;98852.06;;;0.95;61.18
40982;BME280;26708;50.304;19.028;2024-03-08T04:55:27;98835.16;;;0.80;61.33
40982;BME280;26708;50.304;19.028;2024-03-08T04:57:28;98859.78;;;0.95;61.70
40982;BME280;26708;50.304;19.028;2024-03-08T04:59:33;98689.53;;;0.02;61.68
40982;BME280;26708;50.304;19.028;2024-03-08T05:01:38;98838.06;;;0.89;61.71
40982;BME280;26708;50.304;19.028;2024-03-08T05:03:43;98870.75;;;1.12;61.59
40982;BME280;26708;50.304;19.028;2024-03-08T05:05:49;98782.41;;;0.70;61.40
40982;BME280;26708;50.304;19.028;2024-03-08T05:07:54;98758.28;;;0.46;61.71
40982;BME280;26708;50.304;19.028;2024-03-08T05:09:59;98839.38;;;1.22;61.70
40982;BME280;26708;50.304;19.028;2024-03-08T05:12:05;98832.03;;;1.32;61.33
40982;BME280;26708;50.304;19.028;2024-03-08T05:14:10;98727.00;;;0.80;60.97
40982;BME280;26708;50.304;19.028;2024-03-08T05:16:17;98852.97;;;1.63;60.71
40982;BME280;26708;50.304;19.028;2024-03-08T05:18:23;98860.22;;;1.73;61.00
40982;BME280;26708;50.304;19.028;2024-03-08T05:20:30;98747.75;;;1.06;60.24
40982;BME280;26708;50.304;19.028;2024-03-08T05:22:32;98779.34;;;1.24;60.19
40982;BME280;26708;50.304;19.028;2024-03-08T05:24:39;98873.41;;;1.81;59.87
40982;BME280;26708;50.304;19.028;2024-03-08T05:26:45;98733.56;;;0.95;59.86
40982;BME280;26708;50.304;19.028;2024-03-08T05:28:51;98867.63;;;1.64;59.78
40982;BME280;26708;50.304;19.028;2024-03-08T05:30:56;98818.91;;;1.26;59.89
40982;BME280;26708;50.304;19.028;2024-03-08T05:33:01;98793.94;;;1.02;59.84
40982;BME280;26708;50.304;19.028;2024-03-08T05:35:06;98843.53;;;1.18;60.33
40982;BME280;26708;50.304;19.028;2024-03-08T05:37:12;98871.44;;;1.28;60.47
40982;BME280;26708;50.304;19.028;2024-03-08T05:39:18;98750.03;;;0.55;60.54
40982;BME280;26708;50.304;19.028;2024-03-08T05:41:26;98790.25;;;0.73;60.67
40982;BME280;26708;50.304;19.028;2024-03-08T05:43:30;98820.91;;;1.11;60.58
40982;BME280;26708;50.304;19.028;2024-03-08T05:45:36;98845.88;;;1.12;60.60
40982;BME280;26708;50.304;19.028;2024-03-08T05:47:42;98841.47;;;0.88;60.59
40982;BME280;26708;50.304;19.028;2024-03-08T05:49:59;98849.03;;;0.83;60.66
40982;BME280;26708;50.304;19.028;2024-03-08T05:52:02;98785.34;;;0.57;60.80
40982;BME280;26708;50.304;19.028;2024-03-08T05:54:09;98886.16;;;1.10;60.59
40982;BME280;26708;50.304;19.028;2024-03-08T05:56:15;98863.81;;;0.89;60.84
40982;BME280;26708;50.304;19.028;2024-03-08T06:01:10;98788.00;;;0.60;60.67
40982;BME280;26708;50.304;19.028;2024-03-08T06:03:15;98869.94;;;1.13;60.72
40982;BME280;26708;50.304;19.028;2024-03-08T06:05:25;98846.13;;;0.96;60.50
40982;BME280;26708;50.304;19.028;2024-03-08T06:07:30;98828.13;;;0.98;60.32
40982;BME280;26708;50.304;19.028;2024-03-08T06:09:34;98851.84;;;1.11;60.42
40982;BME280;26708;50.304;19.028;2024-03-08T06:11:47;98711.91;;;0.24;60.22
40982;BME280;26708;50.304;19.028;2024-03-08T06:14:23;98730.44;;;0.36;60.08
40982;BME280;26708;50.304;19.028;2024-03-08T06:16:30;98888.63;;;1.29;60.11
40982;BME280;26708;50.304;19.028;2024-03-08T06:18:37;98787.38;;;0.66;60.17
40982;BME280;26708;50.304;19.028;2024-03-08T06:20:49;98825.72;;;1.02;60.31
40982;BME280;26708;50.304;19.028;2024-03-08T06:22:54;98821.31;;;1.00;60.36
40982;BME280;26708;50.304;19.028;2024-03-08T06:24:59;98877.69;;;1.35;60.69
40982;BME280;26708;50.304;19.028;2024-03-08T06:27:04;98806.66;;;0.97;60.07
40982;BME280;26708;50.304;19.028;2024-03-08T06:29:11;98850.56;;;1.22;59.74
40982;BME280;26708;50.304;19.028;2024-03-08T06:31:17;98882.09;;;1.37;59.89
40982;BME280;26708;50.304;19.028;2024-03-08T06:33:24;98863.44;;;1.00;59.67
40982;BME280;26708;50.304;19.028;2024-03-08T06:35:29;98882.41;;;1.24;59.87
40982;BME280;26708;50.304;19.028;2024-03-08T06:37:35;98880.59;;;1.22;60.04
40982;BME280;26708;50.304;19.028;2024-03-08T06:39:40;98763.81;;;0.35;60.15
40982;BME280;26708;50.304;19.028;2024-03-08T06:41:44;98889.16;;;1.21;60.32
40982;BME280;26708;50.304;19.028;2024-03-08T06:43:53;98753.94;;;0.45;60.24
40982;BME280;26708;50.304;19.028;2024-03-08T06:45:59;98895.38;;;1.26;60.09
40982;BME280;26708;50.304;19.028;2024-03-08T06:48:05;98885.34;;;1.33;60.18
40982;BME280;26708;50.304;19.028;2024-03-08T06:50:14;98758.75;;;0.58;60.39
40982;BME280;26708;50.304;19.028;2024-03-08T06:52:18;98805.09;;;1.01;59.96
40982;BME280;26708;50.304;19.028;2024-03-08T06:54:23;98889.41;;;1.49;59.74
40982;BME280;26708;50.304;19.028;2024-03-08T06:56:28;98791.63;;;0.86;59.78
40982;BME280;26708;50.304;19.028;2024-03-08T06:58:33;98875.84;;;1.54;59.80
40982;BME280;26708;50.304;19.028;2024-03-08T07:00:38;98874.19;;;1.56;59.82
40982;BME280;26708;50.304;19.028;2024-03-08T07:02:44;98852.81;;;1.35;59.61
40982;BME280;26708;50.304;19.028;2024-03-08T07:04:49;98774.44;;;0.86;59.62
40982;BME280;26708;50.304;19.028;2024-03-08T07:06:57;98806.69;;;0.99;59.73
40982;BME280;26708;50.304;19.028;2024-03-08T07:09:04;98846.84;;;1.38;59.95
40982;BME280;26708;50.304;19.028;2024-03-08T07:11:08;98783.59;;;1.00;59.76
40982;BME280;26708;50.304;19.028;2024-03-08T07:13:10;98878.66;;;1.60;59.48
40982;BME280;26708;50.304;19.028;2024-03-08T07:15:15;98760.16;;;0.94;59.59
40982;BME280;26708;50.304;19.028;2024-03-08T07:17:20;98753.50;;;0.99;59.66
40982;BME280;26708;50.304;19.028;2024-03-08T07:19:25;98856.28;;;1.59;59.29
40982;BME280;26708;50.304;19.028;2024-03-08T07:21:30;98809.75;;;1.33;59.45
40982;BME280;26708;50.304;19.028;2024-03-08T07:23:38;98821.66;;;1.31;59.41
40982;BME280;26708;50.304;19.028;2024-03-08T07:26:07;98861.47;;;1.61;59.46
40982;BME280;26708;50.304;19.028;2024-03-08T07:28:13;98736.53;;;0.82;59.32
40982;BME280;26708;50.304;19.028;2024-03-08T07:30:17;98778.00;;;1.12;59.28
40982;BME280;26708;50.304;19.028;2024-03-08T07:32:34;98871.25;;;1.69;59.39
40982;BME280;26708;50.304;19.028;2024-03-08T07:34:39;98863.53;;;1.69;59.03
40982;BME280;26708;50.304;19.028;2024-03-08T07:36:42;98863.63;;;1.72;59.30
40982;BME280;26708;50.304;19.028;2024-03-08T07:38:49;98863.22;;;1.62;59.20
40982;BME280;26708;50.304;19.028;2024-03-08T07:40:54;98748.44;;;1.02;59.46
40982;BME280;26708;50.304;19.028;2024-03-08T07:43:00;98878.47;;;1.78;59.76
40982;BME280;26708;50.304;19.028;2024-03-08T07:45:06;98882.06;;;1.81;59.41
40982;BME280;26708;50.304;19.028;2024-03-08T07:47:12;98871.09;;;1.65;59.17
40982;BME280;26708;50.304;19.028;2024-03-08T07:49:18;98860.22;;;1.73;59.10
40982;BME280;26708;50.304;19.028;2024-03-08T07:51:22;98871.00;;;1.85;58.80
40982;BME280;26708;50.304;19.028;2024-03-08T07:53:28;98779.91;;;1.16;58.65
40982;BME280;26708;50.304;19.028;2024-03-08T07:55:36;98776.09;;;1.06;58.85
40982;BME280;26708;50.304;19.028;2024-03-08T07:57:37;98803.13;;;1.17;59.19
40982;BME280;26708;50.304;19.028;2024-03-08T07:59:44;98783.34;;;1.16;59.06
40982;BME280;26708;50.304;19.028;2024-03-08T08:01:49;98902.28;;;1.94;59.09
40982;BME280;26708;50.304;19.028;2024-03-08T08:03:51;98762.03;;;1.20;58.82
40982;BME280;26708;50.304;19.028;2024-03-08T08:05:58;98887.09;;;2.02;58.97
40982;BME280;26708;50.304;19.028;2024-03-08T08:08:05;98809.56;;;1.52;59.00
40982;BME280;26708;50.304;19.028;2024-03-08T08:10:12;98880.22;;;2.02;58.53
40982;BME280;26708;50.304;19.028;2024-03-08T08:12:23;98888.78;;;2.01;58.38
40982;BME280;26708;50.304;19.028;2024-03-08T08:14:29;98883.69;;;2.03;58.50
40982;BME280;26708;50.304;19.028;2024-03-08T08:16:34;98888.84;;;2.03;58.34
40982;BME280;26708;50.304;19.028;2024-03-08T08:18:39;98883.72;;;2.04;58.42
40982;BME280;26708;50.304;19.028;2024-03-08T08:20:45;98809.75;;;1.56;58.50
40982;BME280;26708;50.304;19.028;2024-03-08T08:22:49;98882.09;;;2.06;59.02
40982;BME280;26708;50.304;19.028;2024-03-08T08:24:56;98725.22;;;1.24;58.27
40982;BME280;26708;50.304;19.028;2024-03-08T08:26:58;98702.53;;;1.14;58.29
40982;BME280;26708;50.304;19.028;2024-03-08T08:29:05;98897.41;;;2.25;58.08
40982;BME280;26708;50.304;19.028;2024-03-08T08:31:11;98875.91;;;2.26;58.40
40982;BME280;26708;50.304;19.028;2024-03-08T08:33:15;98851.31;;;2.12;58.06
40982;BME280;26708;50.304;19.028;2024-03-08T08:35:20;98761.41;;;1.51;58.39
40982;BME280;26708;50.304;19.028;2024-03-08T08:37:26;98679.06;;;1.30;57.98
40982;BME280;26708;50.304;19.028;2024-03-08T08:39:30;98877.06;;;2.58;58.10
40982;BME280;26708;50.304;19.028;2024-03-08T08:41:34;98871.16;;;2.62;57.32
40982;BME280;26708;50.304;19.028;2024-03-08T08:43:40;98878.34;;;2.70;57.21
40982;BME280;26708;50.304;19.028;2024-03-08T08:45:47;98838.47;;;2.39;57.18
40982;BME280;26708;50.304;19.028;2024-03-08T08:47:55;98872.69;;;2.82;56.61
40982;BME280;26708;50.304;19.028;2024-03-08T08:50:03;98788.91;;;2.24;56.79
40982;BME280;26708;50.304;19.028;2024-03-08T08:52:09;98873.97;;;2.94;56.49
40982;BME280;26708;50.304;19.028;2024-03-08T08:54:13;98880.06;;;2.96;56.10
40982;BME280;26708;50.304;19.028;2024-03-08T08:56:19;98662.59;;;1.75;55.95
40982;BME280;26708;50.304;19.028;2024-03-08T08:58:24;98725.03;;;1.92;55.54
40982;BME280;26708;50.304;19.028;2024-03-08T09:00:28;98838.53;;;2.40;55.82
40982;BME280;26708;50.304;19.028;2024-03-08T09:02:37;98799.81;;;2.40;56.26
40982;BME280;26708;50.304;19.028;2024-03-08T09:04:39;98863.41;;;2.88;55.80
40982;BME280;26708;50.304;19.028;2024-03-08T09:06:43;98866.41;;;3.00;55.45
40982;BME280;26708;50.304;19.028;2024-03-08T09:08:49;98863.81;;;3.00;55.36
40982;BME280;26708;50.304;19.028;2024-03-08T09:10:51;98863.91;;;3.03;55.48
40982;BME280;26708;50.304;19.028;2024-03-08T09:12:55;98813.34;;;2.85;55.13
40982;BME280;26708;50.304;19.028;2024-03-08T09:15:01;98882.44;;;3.17;54.65
40982;BME280;26708;50.304;19.028;2024-03-08T09:17:05;98777.72;;;2.75;54.48
40982;BME280;26708;50.304;19.028;2024-03-08T09:19:13;98833.88;;;3.07;54.00
40982;BME280;26708;50.304;19.028;2024-03-08T09:21:19;98859.97;;;3.14;53.94
40982;BME280;26708;50.304;19.028;2024-03-08T09:23:23;98786.59;;;2.56;53.96
40982;BME280;26708;50.304;19.028;2024-03-08T09:25:31;98853.78;;;3.09;54.11
40982;BME280;26708;50.304;19.028;2024-03-08T09:27:34;98867.72;;;3.14;54.00
40982;BME280;26708;50.304;19.028;2024-03-08T09:29:40;98782.66;;;2.67;54.18
40982;BME280;26708;50.304;19.028;2024-03-08T09:31:46;98856.56;;;3.17;53.87
40982;BME280;26708;50.304;19.028;2024-03-08T09:33:50;98863.69;;;3.24;53.91
40982;BME280;26708;50.304;19.028;2024-03-08T09:35:57;98867.25;;;3.27;53.74
40982;BME280;26708;50.304;19.028;2024-03-08T09:38:03;98835.47;;;3.03;53.63
40982;BME280;26708;50.304;19.028;2024-03-08T09:40:14;98853.84;;;3.12;53.95
40982;BME280;26708;50.304;19.028;2024-03-08T09:42:21;98813.41;;;2.86;53.43
40982;BME280;26708;50.304;19.028;2024-03-08T09:44:26;98860.34;;;3.00;54.03
40982;BME280;26708;50.304;19.028;2024-03-08T09:46:30;98847.19;;;2.92;54.19
40982;BME280;26708;50.304;19.028;2024-03-08T09:48:34;98741.03;;;2.32;54.30
40982;BME280;26708;50.304;19.028;2024-03-08T09:50:43;98769.16;;;2.49;54.43
40982;BME280;26708;50.304;19.028;2024-03-08T09:52:50;98823.94;;;2.92;55.15
40982;BME280;26708;50.304;19.028;2024-03-08T09:54:59;98770.28;;;2.57;54.77
40982;BME280;26708;50.304;19.028;2024-03-08T09:57:06;98810.19;;;2.93;54.33
40982;BME280;26708;50.304;19.028;2024-03-08T09:59:12;98837.00;;;3.25;54.42
40982;BME280;26708;50.304;19.028;2024-03-08T10:01:35;98851.72;;;3.26;53.75
40982;BME280;26708;50.304;19.028;2024-03-08T10:03:40;98741.50;;;2.73;54.09
40982;BME280;26708;50.304;19.028;2024-03-08T10:05:45;98803.09;;;3.14;53.87
40982;BME280;26708;50.304;19.028;2024-03-08T10:07:52;98690.72;;;2.47;53.90
40982;BME280;26708;50.304;19.028;2024-03-08T10:09:58;98739.81;;;2.74;54.22
40982;BME280;26708;50.304;19.028;2024-03-08T10:12:04;98807.72;;;3.24;54.21
40982;BME280;26708;50.304;19.028;2024-03-08T10:14:10;98645.59;;;2.35;53.46
40982;BME280;26708;50.304;19.028;2024-03-08T10:16:16;98748.72;;;2.83;53.64
40982;BME280;26708;50.304;19.028;2024-03-08T10:18:21;98830.03;;;3.50;53.33
40982;BME280;26708;50.304;19.028;2024-03-08T10:20:23;98806.44;;;3.40;52.79
40982;BME280;26708;50.304;19.028;2024-03-08T10:22:29;98838.03;;;3.59;53.12
40982;BME280;26708;50.304;19.028;2024-03-08T10:24:36;98735.50;;;3.02;53.18
40982;BME280;26708;50.304;19.028;2024-03-08T10:26:41;98701.28;;;2.81;52.84
40982;BME280;26708;50.304;19.028;2024-03-08T10:28:48;98820.03;;;3.62;52.85
40982;BME280;26708;50.304;19.028;2024-03-08T10:30:57;98734.41;;;3.22;52.70
40982;BME280;26708;50.304;19.028;2024-03-08T10:33:02;98762.69;;;3.47;52.78
40982;BME280;26708;50.304;19.028;2024-03-08T10:35:10;98752.19;;;3.72;52.74
40982;BME280;26708;50.304;19.028;2024-03-08T10:37:16;98723.59;;;3.68;52.60
40982;BME280;26708;50.304;19.028;2024-03-08T10:39:37;98816.19;;;4.41;52.09
40982;BME280;26708;50.304;19.028;2024-03-08T10:41:46;98689.91;;;3.66;50.80
40982;BME280;26708;50.304;19.028;2024-03-08T10:44:12;98803.53;;;4.53;51.30
40982;BME280;26708;50.304;19.028;2024-03-08T10:46:44;98818.53;;;4.64;50.75
40982;BME280;26708;50.304;19.028;2024-03-08T10:49:08;98808.31;;;4.72;50.34
40982;BME280;26708;50.304;19.028;2024-03-08T10:51:21;98676.25;;;4.04;50.50
40982;BME280;26708;50.304;19.028;2024-03-08T10:53:28;98658.00;;;3.99;50.46
40982;BME280;26708;50.304;19.028;2024-03-08T10:55:37;98721.78;;;4.30;50.42
40982;BME280;26708;50.304;19.028;2024-03-08T10:57:44;98702.25;;;4.44;49.90
40982;BME280;26708;50.304;19.028;2024-03-08T10:59:50;98666.50;;;4.29;50.04
40982;BME280;26708;50.304;19.028;2024-03-08T11:01:54;98777.88;;;4.97;49.15
40982;BME280;26708;50.304;19.028;2024-03-08T11:03:58;98699.97;;;4.56;49.84
40982;BME280;26708;50.304;19.028;2024-03-08T11:06:04;98696.66;;;4.63;49.55
40982;BME280;26708;50.304;19.028;2024-03-08T11:08:16;98777.50;;;5.21;48.70
40982;BME280;26708;50.304;19.028;2024-03-08T11:10:20;98691.69;;;4.72;48.55